sensor_id;sensor_type;location;lat;lon;timestamp;pressure;altitude;pressure_sealevel;temperature;humidity
32237;BME280;18726;44.732;10.550;2023-05-02T00:02:07;100837.47;;;14.56;100.00
32237;BME280;18726;44.732;10.550;2023-05-02T00:05:11;100838.69;;;14.59;100.00
32237;BME280;18726;44.732;10.550;2023-05-02T00:08:15;100840.63;;;14.58;100.00
32237;BME280;18726;44.732;10.550;2023-05-02T00:11:18;100832.00;;;14.56;100.00
32237;BME280;18726;44.732;10.550;2023-05-02T00:14:23;100821.06;;;14.56;100.00
32237;BME280;18726;44.732;10.550;2023-05-02T00:17:27;100821.91;;;14.60;100.00
32237;BME280;18726;44.732;10.550;2023-05-02T00:20:31;100813.69;;;14.60;100.00
32237;BME280;18726;44.732;10.550;2023-05-02T00:23:35;100819.59;;;14.62;100.00
32237;BME280;18726;44.732;10.550;2023-05-02T00:26:38;100803.56;;;14.61;100.00
32237;BME280;18726;44.732;10.550;2023-05-02T00:29:42;100793.41;;;14.61;100.00
32237;BME280;18726;44.732;10.550;2023-05-02T00:32:45;100795.03;;;14.66;100.00
32237;BME280;18726;44.732;10.550;2023-05-02T00:35:49;100792.66;;;14.64;100.00
32237;BME280;18726;44.732;10.550;2023-05-02T00:38:53;100784.06;;;14.62;100.00
32237;BME280;18726;44.732;10.550;2023-05-02T00:41:58;100777.66;;;14.51;100.00
32237;BME280;18726;44.732;10.550;2023-05-02T00:45:03;100775.31;;;14.53;100.00
32237;BME280;18726;44.732;10.550;2023-05-02T00:48:09;100770.19;;;14.48;100.00
32237;BME280;18726;44.732;10.550;2023-05-02T00:51:13;100764.75;;;14.51;100.00
32237;BME280;18726;44.732;10.550;2023-05-02T00:54:17;100763.19;;;14.50;100.00
32237;BME280;18726;44.732;10.550;2023-05-02T00:57:21;100765.13;;;14.50;100.00
32237;BME280;18726;44.732;10.550;2023-05-02T01:00:32;100753.00;;;14.47;100.00
32237;BME280;18726;44.732;10.550;2023-05-02T01:03:59;100758.81;;;14.46;100.00
32237;BME280;18726;44.732;10.550;2023-05-02T01:10:31;100758.09;;;14.49;100.00
32237;BME280;18726;44.732;10.550;2023-05-02T01:13:39;100754.28;;;14.57;100.00
32237;BME280;18726;44.732;10.550;2023-05-02T01:16:45;100755.22;;;14.68;100.00
32237;BME280;18726;44.732;10.550;2023-05-02T01:19:54;100752.13;;;14.73;100.00
32237;BME280;18726;44.732;10.550;2023-05-02T01:23:02;100746.94;;;14.35;100.00
32237;BME280;18726;44.732;10.550;2023-05-02T01:29:18;100743.91;;;14.40;100.00
32237;BME280;18726;44.732;10.550;2023-05-02T01:32:23;100752.56;;;14.19;100.00
32237;BME280;18726;44.732;10.550;2023-05-02T01:35:29;100752.63;;;14.23;100.00
32237;BME280;18726;44.732;10.550;2023-05-02T01:38:34;100748.22;;;14.71;100.00
32237;BME280;18726;44.732;10.550;2023-05-02T01:41:41;100751.91;;;14.85;100.00
32237;BME280;18726;44.732;10.550;2023-05-02T01:44:45;100752.53;;;14.72;100.00
32237;BME280;18726;44.732;10.550;2023-05-02T01:47:51;100748.00;;;14.53;100.00
32237;BME280;18726;44.732;10.550;2023-05-02T01:50:56;100747.91;;;14.46;100.00
32237;BME280;18726;44.732;10.550;2023-05-02T01:54:03;100745.50;;;14.41;100.00
32237;BME280;18726;44.732;10.550;2023-05-02T01:57:11;100750.97;;;14.41;100.00
32237;BME280;18726;44.732;10.550;2023-05-02T02:00:16;100749.31;;;14.36;100.00
32237;BME280;18726;44.732;10.550;2023-05-02T02:03:21;100750.09;;;14.37;100.00
32237;BME280;18726;44.732;10.550;2023-05-02T02:06:25;100745.06;;;14.39;100.00
32237;BME280;18726;44.732;10.550;2023-05-02T02:09:30;100736.53;;;14.44;100.00
32237;BME280;18726;44.732;10.550;2023-05-02T02:12:41;100731.47;;;14.42;100.00
32237;BME280;18726;44.732;10.550;2023-05-02T02:15:49;100729.13;;;14.41;100.00
32237;BME280;18726;44.732;10.550;2023-05-02T02:18:56;100732.00;;;14.55;100.00
32237;BME280;18726;44.732;10.550;2023-05-02T02:22:02;100727.78;;;14.61;100.00
32237;BME280;18726;44.732;10.550;2023-05-02T02:25:10;100731.78;;;14.67;100.00
32237;BME280;18726;44.732;10.550;2023-05-02T02:28:14;100725.63;;;14.77;100.00
32237;BME280;18726;44.732;10.550;2023-05-02T02:31:19;100730.78;;;14.82;100.00
32237;BME280;18726;44.732;10.550;2023-05-02T02:34:22;100726.31;;;14.67;100.00
32237;BME280;18726;44.732;10.550;2023-05-02T02:37:49;100723.16;;;14.65;100.00
32237;BME280;18726;44.732;10.550;2023-05-02T02:40:56;100726.63;;;14.62;100.00
32237;BME280;18726;44.732;10.550;2023-05-02T02:44:19;100727.28;;;14.52;100.00
32237;BME280;18726;44.732;10.550;2023-05-02T02:47:31;100726.91;;;14.53;100.00
32237;BME280;18726;44.732;10.550;2023-05-02T02:51:27;100731.50;;;14.46;100.00
32237;BME280;18726;44.732;10.550;2023-05-02T02:54:40;100728.84;;;14.53;100.00
32237;BME280;18726;44.732;10.550;2023-05-02T03:01:21;100720.78;;;14.64;100.00
32237;BME280;18726;44.732;10.550;2023-05-02T03:04:26;100724.97;;;14.54;100.00
32237;BME280;18726;44.732;10.550;2023-05-02T03:07:32;100720.13;;;14.44;100.00
32237;BME280;18726;44.732;10.550;2023-05-02T03:10:37;100725.06;;;14.61;100.00
32237;BME280;18726;44.732;10.550;2023-05-02T03:13:41;100725.97;;;14.72;100.00
32237;BME280;18726;44.732;10.550;2023-05-02T03:16:45;100730.69;;;14.75;100.00
32237;BME280;18726;44.732;10.550;2023-05-02T03:19:51;100730.53;;;14.05;100.00
32237;BME280;18726;44.732;10.550;2023-05-02T03:22:55;100726.47;;;13.95;100.00
32237;BME280;18726;44.732;10.550;2023-05-02T03:25:59;100725.72;;;14.25;100.00
32237;BME280;18726;44.732;10.550;2023-05-02T03:29:03;100720.56;;;14.46;100.00
32237;BME280;18726;44.732;10.550;2023-05-02T03:32:12;100721.06;;;14.55;100.00
32237;BME280;18726;44.732;10.550;2023-05-02T03:35:18;100713.34;;;14.61;100.00
32237;BME280;18726;44.732;10.550;2023-05-02T03:38:23;100721.88;;;14.56;100.00
32237;BME280;18726;44.732;10.550;2023-05-02T03:41:27;100726.44;;;14.48;100.00
32237;BME280;18726;44.732;10.550;2023-05-02T03:44:38;100721.06;;;14.55;100.00
32237;BME280;18726;44.732;10.550;2023-05-02T03:47:42;100726.00;;;14.42;100.00
32237;BME280;18726;44.732;10.550;2023-05-02T03:50:46;100719.88;;;14.52;100.00
32237;BME280;18726;44.732;10.550;2023-05-02T03:53:51;100725.09;;;14.35;100.00
32237;BME280;18726;44.732;10.550;2023-05-02T03:56:55;100725.09;;;14.35;100.00
32237;BME280;18726;44.732;10.550;2023-05-02T04:00:07;100731.28;;;14.32;100.00
32237;BME280;18726;44.732;10.550;2023-05-02T04:03:22;100728.94;;;14.30;100.00
32237;BME280;18726;44.732;10.550;2023-05-02T04:06:26;100733.59;;;14.30;100.00
32237;BME280;18726;44.732;10.550;2023-05-02T04:09:34;100729.78;;;14.34;100.00
32237;BME280;18726;44.732;10.550;2023-05-02T04:12:45;100741.81;;;14.30;100.00
32237;BME280;18726;44.732;10.550;2023-05-02T04:15:48;100736.84;;;14.39;100.00
32237;BME280;18726;44.732;10.550;2023-05-02T04:18:56;100746.63;;;14.40;100.00
32237;BME280;18726;44.732;10.550;2023-05-02T04:22:01;100744.63;;;14.37;100.00
32237;BME280;18726;44.732;10.550;2023-05-02T04:25:08;100741.50;;;14.35;100.00
32237;BME280;18726;44.732;10.550;2023-05-02T04:28:14;100750.84;;;14.34;100.00
32237;BME280;18726;44.732;10.550;2023-05-02T04:31:18;100759.47;;;14.36;100.00
32237;BME280;18726;44.732;10.550;2023-05-02T04:34:23;100760.19;;;14.33;100.00
32237;BME280;18726;44.732;10.550;2023-05-02T04:37:26;100767.88;;;14.24;100.00
32237;BME280;18726;44.732;10.550;2023-05-02T04:40:31;100776.47;;;14.26;100.00
32237;BME280;18726;44.732;10.550;2023-05-02T04:43:40;100780.38;;;14.25;100.00
32237;BME280;18726;44.732;10.550;2023-05-02T04:46:44;100788.63;;;14.28;100.00
32237;BME280;18726;44.732;10.550;2023-05-02T04:49:49;100799.81;;;14.19;100.00
32237;BME280;18726;44.732;10.550;2023-05-02T04:52:53;100798.22;;;14.18;100.00
32237;BME280;18726;44.732;10.550;2023-05-02T04:55:56;100809.59;;;14.20;100.00
32237;BME280;18726;44.732;10.550;2023-05-02T04:59:00;100813.88;;;14.22;100.00
32237;BME280;18726;44.732;10.550;2023-05-02T05:02:04;100817.03;;;14.24;100.00
32237;BME280;18726;44.732;10.550;2023-05-02T05:05:08;100828.47;;;14.29;100.00
32237;BME280;18726;44.732;10.550;2023-05-02T05:08:12;100827.41;;;14.37;100.00
32237;BME280;18726;44.732;10.550;2023-05-02T05:11:16;100823.59;;;14.42;100.00
32237;BME280;18726;44.732;10.550;2023-05-02T05:14:20;100829.66;;;14.32;100.00
32237;BME280;18726;44.732;10.550;2023-05-02T05:17:28;100839.03;;;14.31;100.00
32237;BME280;18726;44.732;10.550;2023-05-02T05:20:32;100847.66;;;14.33;100.00
32237;BME280;18726;44.732;10.550;2023-05-02T05:23:37;100853.53;;;14.35;100.00
32237;BME280;18726;44.732;10.550;2023-05-02T05:26:42;100871.03;;;14.30;100.00
32237;BME280;18726;44.732;10.550;2023-05-02T05:29:47;100879.94;;;14.27;100.00
32237;BME280;18726;44.732;10.550;2023-05-02T05:32:51;100893.97;;;14.26;100.00
32237;BME280;18726;44.732;10.550;2023-05-02T05:35:55;100898.28;;;14.27;100.00
32237;BME280;18726;44.732;10.550;2023-05-02T05:38:59;100899.13;;;14.31;100.00
32237;BME280;18726;44.732;10.550;2023-05-02T05:45:35;100907.88;;;14.40;100.00
32237;BME280;18726;44.732;10.550;2023-05-02T05:48:40;100904.72;;;14.38;100.00
32237;BME280;18726;44.732;10.550;2023-05-02T05:51:44;100915.78;;;14.45;100.00
32237;BME280;18726;44.732;10.550;2023-05-02T05:54:53;100922.69;;;14.39;100.00
32237;BME280;18726;44.732;10.550;2023-05-02T05:57:59;100926.59;;;14.38;100.00
32237;BME280;18726;44.732;10.550;2023-05-02T06:01:03;100925.88;;;14.41;100.00
32237;BME280;18726;44.732;10.550;2023-05-02T06:04:06;100929.88;;;14.47;100.00
32237;BME280;18726;44.732;10.550;2023-05-02T06:07:13;100926.72;;;14.45;100.00
32237;BME280;18726;44.732;10.550;2023-05-02T06:10:17;100943.13;;;14.45;100.00
32237;BME280;18726;44.732;10.550;2023-05-02T06:13:21;100944.09;;;14.56;100.00
32237;BME280;18726;44.732;10.550;2023-05-02T06:16:26;100944.19;;;14.63;100.00
32237;BME280;18726;44.732;10.550;2023-05-02T06:19:30;100945.91;;;14.71;100.00
32237;BME280;18726;44.732;10.550;2023-05-02T06:22:34;100953.88;;;14.83;100.00
32237;BME280;18726;44.732;10.550;2023-05-02T06:25:38;100957.03;;;14.85;100.00
32237;BME280;18726;44.732;10.550;2023-05-02T06:28:41;100963.47;;;14.97;100.00
32237;BME280;18726;44.732;10.550;2023-05-02T06:31:46;100969.91;;;15.11;100.00
32237;BME280;18726;44.732;10.550;2023-05-02T06:34:49;100974.38;;;15.23;100.00
32237;BME280;18726;44.732;10.550;2023-05-02T06:37:54;100970.19;;;15.33;100.00
32237;BME280;18726;44.732;10.550;2023-05-02T06:40:57;100978.13;;;15.41;100.00
32237;BME280;18726;44.732;10.550;2023-05-02T06:44:01;100979.72;;;15.42;100.00
32237;BME280;18726;44.732;10.550;2023-05-02T06:47:05;100987.59;;;15.47;100.00
32237;BME280;18726;44.732;10.550;2023-05-02T06:50:11;100980.66;;;15.53;100.00
32237;BME280;18726;44.732;10.550;2023-05-02T06:53:15;100984.63;;;15.60;100.00
32237;BME280;18726;44.732;10.550;2023-05-02T06:56:19;100983.88;;;15.63;100.00
32237;BME280;18726;44.732;10.550;2023-05-02T06:59:23;100976.22;;;15.75;100.00
32237;BME280;18726;44.732;10.550;2023-05-02T07:02:26;100986.16;;;15.87;100.00
32237;BME280;18726;44.732;10.550;2023-05-02T07:05:30;101001.56;;;16.02;100.00
32237;BME280;18726;44.732;10.550;2023-05-02T07:08:34;100988.38;;;16.11;100.00
32237;BME280;18726;44.732;10.550;2023-05-02T07:11:37;101002.53;;;16.20;100.00
32237;BME280;18726;44.732;10.550;2023-05-02T07:14:41;100991.66;;;16.28;100.00
32237;BME280;18726;44.732;10.550;2023-05-02T07:17:44;101002.59;;;16.28;100.00
32237;BME280;18726;44.732;10.550;2023-05-02T07:20:50;101004.19;;;16.29;100.00
32237;BME280;18726;44.732;10.550;2023-05-02T07:23:54;101000.63;;;16.25;100.00
32237;BME280;18726;44.732;10.550;2023-05-02T07:27:00;101009.13;;;16.12;100.00
32237;BME280;18726;44.732;10.550;2023-05-02T07:30:04;101013.38;;;16.06;100.00
32237;BME280;18726;44.732;10.550;2023-05-02T07:33:08;101007.22;;;16.16;100.00
32237;BME280;18726;44.732;10.550;2023-05-02T07:36:12;101015.91;;;16.26;100.00
32237;BME280;18726;44.732;10.550;2023-05-02T07:39:15;101009.41;;;16.41;100.00
32237;BME280;18726;44.732;10.550;2023-05-02T07:42:19;101014.63;;;16.57;100.00
32237;BME280;18726;44.732;10.550;2023-05-02T07:45:22;101019.91;;;16.72;100.00
32237;BME280;18726;44.732;10.550;2023-05-02T07:48:25;101014.19;;;16.95;100.00
32237;BME280;18726;44.732;10.550;2023-05-02T07:51:29;101008.81;;;17.13;100.00
32237;BME280;18726;44.732;10.550;2023-05-02T07:54:33;101013.72;;;17.48;100.00
32237;BME280;18726;44.732;10.550;2023-05-02T07:57:37;101015.09;;;17.93;100.00
32237;BME280;18726;44.732;10.550;2023-05-02T08:00:41;101014.81;;;18.37;100.00
32237;BME280;18726;44.732;10.550;2023-05-02T08:03:44;101028.94;;;18.50;100.00
32237;BME280;18726;44.732;10.550;2023-05-02T08:06:48;101029.75;;;18.54;100.00
32237;BME280;18726;44.732;10.550;2023-05-02T08:09:52;101031.31;;;18.55;100.00
32237;BME280;18726;44.732;10.550;2023-05-02T08:12:55;101028.16;;;18.35;100.00
32237;BME280;18726;44.732;10.550;2023-05-02T08:15:59;101041.09;;;18.28;100.00
32237;BME280;18726;44.732;10.550;2023-05-02T08:19:02;101044.22;;;18.08;100.00
32237;BME280;18726;44.732;10.550;2023-05-02T08:22:06;101044.16;;;17.98;100.00
32237;BME280;18726;44.732;10.550;2023-05-02T08:25:09;101046.94;;;18.01;100.00
32237;BME280;18726;44.732;10.550;2023-05-02T08:28:13;101048.59;;;16.85;100.00
32237;BME280;18726;44.732;10.550;2023-05-02T08:31:16;101050.91;;;17.31;100.00
32237;BME280;18726;44.732;10.550;2023-05-02T08:34:20;101044.91;;;16.27;100.00
32237;BME280;18726;44.732;10.550;2023-05-02T08:37:23;101048.72;;;17.00;100.00
32237;BME280;18726;44.732;10.550;2023-05-02T08:40:27;101057.00;;;16.63;100.00
32237;BME280;18726;44.732;10.550;2023-05-02T08:43:31;101057.25;;;16.87;100.00
32237;BME280;18726;44.732;10.550;2023-05-02T08:46:36;101063.13;;;17.44;100.00
32237;BME280;18726;44.732;10.550;2023-05-02T08:49:43;101065.59;;;17.64;100.00
32237;BME280;18726;44.732;10.550;2023-05-02T08:52:48;101073.16;;;17.19;100.00
32237;BME280;18726;44.732;10.550;2023-05-02T08:55:54;101073.84;;;17.05;100.00
32237;BME280;18726;44.732;10.550;2023-05-02T08:58:57;101077.09;;;17.18;100.00
32237;BME280;18726;44.732;10.550;2023-05-02T09:02:17;101084.97;;;17.23;100.00
32237;BME280;18726;44.732;10.550;2023-05-02T09:05:25;101078.00;;;16.44;100.00
32237;BME280;18726;44.732;10.550;2023-05-02T09:08:29;101087.09;;;16.55;100.00
32237;BME280;18726;44.732;10.550;2023-05-02T09:11:33;101089.53;;;16.27;100.00
32237;BME280;18726;44.732;10.550;2023-05-02T09:14:36;101091.00;;;16.17;100.00
32237;BME280;18726;44.732;10.550;2023-05-02T09:17:44;101083.53;;;16.14;100.00
32237;BME280;18726;44.732;10.550;2023-05-02T09:20:49;101091.28;;;16.42;100.00
32237;BME280;18726;44.732;10.550;2023-05-02T09:23:54;101094.00;;;16.39;100.00
32237;BME280;18726;44.732;10.550;2023-05-02T09:27:00;101087.19;;;16.26;100.00
32237;BME280;18726;44.732;10.550;2023-05-02T09:30:18;101091.59;;;16.34;100.00
32237;BME280;18726;44.732;10.550;2023-05-02T09:33:26;101098.06;;;16.18;100.00
32237;BME280;18726;44.732;10.550;2023-05-02T09:36:38;101099.31;;;16.62;100.00
32237;BME280;18726;44.732;10.550;2023-05-02T09:40:04;101102.25;;;16.42;100.00
32237;BME280;18726;44.732;10.550;2023-05-02T09:43:14;101100.13;;;15.95;100.00
32237;BME280;18726;44.732;10.550;2023-05-02T09:46:21;101109.34;;;15.53;100.00
32237;BME280;18726;44.732;10.550;2023-05-02T09:49:39;101104.81;;;15.65;100.00
32237;BME280;18726;44.732;10.550;2023-05-02T09:53:00;101102.53;;;15.17;100.00
32237;BME280;18726;44.732;10.550;2023-05-02T09:56:05;101095.00;;;15.94;100.00
32237;BME280;18726;44.732;10.550;2023-05-02T09:59:15;101105.22;;;15.67;100.00
32237;BME280;18726;44.732;10.550;2023-05-02T10:02:19;101111.47;;;16.27;100.00
32237;BME280;18726;44.732;10.550;2023-05-02T10:05:24;101110.78;;;16.67;100.00
32237;BME280;18726;44.732;10.550;2023-05-02T10:08:28;101117.75;;;17.05;100.00
32237;BME280;18726;44.732;10.550;2023-05-02T10:11:31;101121.50;;;16.83;100.00
32237;BME280;18726;44.732;10.550;2023-05-02T10:14:40;101127.38;;;16.85;100.00
32237;BME280;18726;44.732;10.550;2023-05-02T10:17:47;101123.91;;;16.54;100.00
32237;BME280;18726;44.732;10.550;2023-05-02T10:20:58;101122.38;;;16.57;100.00
32237;BME280;18726;44.732;10.550;2023-05-02T10:24:02;101122.41;;;16.24;100.00
32237;BME280;18726;44.732;10.550;2023-05-02T10:27:07;101119.25;;;16.21;100.00
32237;BME280;18726;44.732;10.550;2023-05-02T10:30:12;101116.00;;;16.12;100.00
32237;BME280;18726;44.732;10.550;2023-05-02T10:33:17;101118.22;;;16.33;100.00
32237;BME280;18726;44.732;10.550;2023-05-02T10:36:22;101110.03;;;16.03;100.00
32237;BME280;18726;44.732;10.550;2023-05-02T10:39:26;101116.88;;;15.86;100.00
32237;BME280;18726;44.732;10.550;2023-05-02T10:42:36;101119.50;;;16.43;100.00
32237;BME280;18726;44.732;10.550;2023-05-02T10:45:39;101119.91;;;16.11;100.00
32237;BME280;18726;44.732;10.550;2023-05-02T10:48:59;101119.00;;;16.34;100.00
32237;BME280;18726;44.732;10.550;2023-05-02T10:52:33;101118.25;;;16.03;100.00
32237;BME280;18726;44.732;10.550;2023-05-02T10:55:38;101116.03;;;16.86;100.00
32237;BME280;18726;44.732;10.550;2023-05-02T10:58:44;101115.53;;;17.18;100.00
32237;BME280;18726;44.732;10.550;2023-05-02T11:01:48;101112.69;;;17.59;100.00
32237;BME280;18726;44.732;10.550;2023-05-02T11:05:03;101125.28;;;17.67;100.00
32237;BME280;18726;44.732;10.550;2023-05-02T11:11:43;101120.50;;;17.57;100.00
32237;BME280;18726;44.732;10.550;2023-05-02T11:14:47;101120.66;;;17.78;100.00
32237;BME280;18726;44.732;10.550;2023-05-02T11:18:04;101125.03;;;17.86;100.00
32237;BME280;18726;44.732;10.550;2023-05-02T11:21:27;101116.81;;;17.90;100.00
32237;BME280;18726;44.732;10.550;2023-05-02T11:24:41;101120.63;;;17.74;100.00
32237;BME280;18726;44.732;10.550;2023-05-02T11:27:46;101121.22;;;17.46;100.00
32237;BME280;18726;44.732;10.550;2023-05-02T11:30:51;101122.13;;;17.10;100.00
32237;BME280;18726;44.732;10.550;2023-05-02T11:33:55;101120.75;;;17.37;100.00
32237;BME280;18726;44.732;10.550;2023-05-02T11:36:59;101115.00;;;16.28;100.00
32237;BME280;18726;44.732;10.550;2023-05-02T11:40:10;101112.84;;;16.10;100.00
32237;BME280;18726;44.732;10.550;2023-05-02T11:43:17;101116.34;;;16.41;100.00
32237;BME280;18726;44.732;10.550;2023-05-02T11:46:21;101111.22;;;16.76;100.00
32237;BME280;18726;44.732;10.550;2023-05-02T11:49:25;101125.84;;;16.87;100.00
32237;BME280;18726;44.732;10.550;2023-05-02T11:52:29;101121.00;;;16.70;100.00
32237;BME280;18726;44.732;10.550;2023-05-02T11:55:34;101125.78;;;16.47;100.00
32237;BME280;18726;44.732;10.550;2023-05-02T11:58:39;101125.41;;;16.45;100.00
32237;BME280;18726;44.732;10.550;2023-05-02T12:01:49;101123.97;;;16.25;100.00
32237;BME280;18726;44.732;10.550;2023-05-02T12:04:53;101119.13;;;16.11;100.00
32237;BME280;18726;44.732;10.550;2023-05-02T12:07:57;101127.41;;;16.14;100.00
32237;BME280;18726;44.732;10.550;2023-05-02T12:11:00;101122.41;;;16.24;100.00
32237;BME280;18726;44.732;10.550;2023-05-02T12:14:04;101127.09;;;16.23;100.00
32237;BME280;18726;44.732;10.550;2023-05-02T12:17:08;101125.72;;;16.73;100.00
32237;BME280;18726;44.732;10.550;2023-05-02T12:20:12;101127.16;;;17.04;100.00
32237;BME280;18726;44.732;10.550;2023-05-02T12:23:18;101128.47;;;16.73;100.00
32237;BME280;18726;44.732;10.550;2023-05-02T12:26:23;101132.06;;;16.44;100.00
32237;BME280;18726;44.732;10.550;2023-05-02T12:29:51;101129.84;;;15.93;100.00
32237;BME280;18726;44.732;10.550;2023-05-02T12:32:59;101128.41;;;16.03;100.00
32237;BME280;18726;44.732;10.550;2023-05-02T12:36:06;101132.38;;;16.05;100.00
32237;BME280;18726;44.732;10.550;2023-05-02T12:39:11;101132.63;;;16.27;100.00
32237;BME280;18726;44.732;10.550;2023-05-02T12:42:18;101135.53;;;16.07;100.00
32237;BME280;18726;44.732;10.550;2023-05-02T12:45:22;101132.28;;;15.98;100.00
32237;BME280;18726;44.732;10.550;2023-05-02T12:48:26;101146.59;;;15.88;100.00
32237;BME280;18726;44.732;10.550;2023-05-02T12:51:30;101148.13;;;15.82;100.00
32237;BME280;18726;44.732;10.550;2023-05-02T12:54:35;101147.19;;;16.01;100.00
32237;BME280;18726;44.732;10.550;2023-05-02T12:57:39;101161.69;;;15.75;100.00
32237;BME280;18726;44.732;10.550;2023-05-02T13:00:43;101135.53;;;15.77;100.00
32237;BME280;18726;44.732;10.550;2023-05-02T13:03:49;101147.78;;;15.87;100.00
32237;BME280;18726;44.732;10.550;2023-05-02T13:06:53;101150.19;;;15.92;100.00
32237;BME280;18726;44.732;10.550;2023-05-02T13:09:56;101152.84;;;16.15;100.00
32237;BME280;18726;44.732;10.550;2023-05-02T13:13:00;101143.84;;;16.14;100.00
32237;BME280;18726;44.732;10.550;2023-05-02T13:16:05;101141.84;;;16.11;100.00
32237;BME280;18726;44.732;10.550;2023-05-02T13:19:09;101144.50;;;16.38;100.00
32237;BME280;18726;44.732;10.550;2023-05-02T13:22:13;101141.59;;;15.94;100.00
32237;BME280;18726;44.732;10.550;2023-05-02T13:25:16;101145.75;;;16.10;100.00
32237;BME280;18726;44.732;10.550;2023-05-02T13:28:28;101141.16;;;16.21;100.00
32237;BME280;18726;44.732;10.550;2023-05-02T13:31:35;101141.44;;;16.43;100.00
32237;BME280;18726;44.732;10.550;2023-05-02T13:34:38;101148.31;;;16.30;100.00
32237;BME280;18726;44.732;10.550;2023-05-02T13:37:42;101149.25;;;16.74;100.00
32237;BME280;18726;44.732;10.550;2023-05-02T13:40:46;101145.06;;;16.87;100.00
32237;BME280;18726;44.732;10.550;2023-05-02T13:43:49;101136.00;;;16.83;100.00
32237;BME280;18726;44.732;10.550;2023-05-02T13:46:53;101143.81;;;16.81;100.00
32237;BME280;18726;44.732;10.550;2023-05-02T13:49:57;101147.34;;;16.82;100.00
32237;BME280;18726;44.732;10.550;2023-05-02T13:53:01;101137.66;;;16.92;100.00
32237;BME280;18726;44.732;10.550;2023-05-02T13:56:04;101146.38;;;17.04;100.00
32237;BME280;18726;44.732;10.550;2023-05-02T13:59:08;101143.31;;;17.13;100.00
32237;BME280;18726;44.732;10.550;2023-05-02T14:02:12;101147.38;;;17.26;100.00
32237;BME280;18726;44.732;10.550;2023-05-02T14:05:16;101144.91;;;17.14;100.00
32237;BME280;18726;44.732;10.550;2023-05-02T14:08:19;101134.09;;;16.87;100.00
32237;BME280;18726;44.732;10.550;2023-05-02T14:11:22;101147.34;;;16.82;100.00
32237;BME280;18726;44.732;10.550;2023-05-02T14:14:26;101141.06;;;16.81;100.00
32237;BME280;18726;44.732;10.550;2023-05-02T14:17:29;101148.84;;;16.72;100.00
32237;BME280;18726;44.732;10.550;2023-05-02T14:20:34;101134.88;;;16.88;100.00
32237;BME280;18726;44.732;10.550;2023-05-02T14:23:37;101150.41;;;16.73;100.00
32237;BME280;18726;44.732;10.550;2023-05-02T14:26:41;101145.16;;;16.61;100.00
32237;BME280;18726;44.732;10.550;2023-05-02T14:29:45;101159.03;;;16.72;100.00
32237;BME280;18726;44.732;10.550;2023-05-02T14:32:49;101153.38;;;16.61;100.00
32237;BME280;18726;44.732;10.550;2023-05-02T14:35:52;101154.84;;;16.51;100.00
32237;BME280;18726;44.732;10.550;2023-05-02T14:38:56;101154.78;;;16.44;100.00
32237;BME280;18726;44.732;10.550;2023-05-02T14:42:00;101157.22;;;16.53;100.00
32237;BME280;18726;44.732;10.550;2023-05-02T14:45:06;101159.38;;;16.37;100.00
32237;BME280;18726;44.732;10.550;2023-05-02T14:48:10;101159.25;;;16.26;100.00
32237;BME280;18726;44.732;10.550;2023-05-02T14:51:16;101156.28;;;16.38;100.00
32237;BME280;18726;44.732;10.550;2023-05-02T14:54:25;101161.81;;;16.42;100.00
32237;BME280;18726;44.732;10.550;2023-05-02T14:57:28;101164.28;;;16.54;100.00
32237;BME280;18726;44.732;10.550;2023-05-02T15:00:33;101171.63;;;16.46;100.00
32237;BME280;18726;44.732;10.550;2023-05-02T15:03:37;101166.25;;;16.24;100.00
32237;BME280;18726;44.732;10.550;2023-05-02T15:06:41;101170.44;;;16.44;100.00
32237;BME280;18726;44.732;10.550;2023-05-02T15:09:44;101172.41;;;16.47;100.00
32237;BME280;18726;44.732;10.550;2023-05-02T15:12:48;101175.25;;;16.54;100.00
32237;BME280;18726;44.732;10.550;2023-05-02T15:15:53;101168.13;;;16.49;100.00
32237;BME280;18726;44.732;10.550;2023-05-02T15:18:57;101164.59;;;16.49;100.00
32237;BME280;18726;44.732;10.550;2023-05-02T15:22:01;101174.44;;;16.53;100.00
32237;BME280;18726;44.732;10.550;2023-05-02T15:25:05;101175.16;;;16.47;100.00
32237;BME280;18726;44.732;10.550;2023-05-02T15:28:08;101175.50;;;16.75;100.00
32237;BME280;18726;44.732;10.550;2023-05-02T15:31:12;101173.97;;;16.44;100.00
32237;BME280;18726;44.732;10.550;2023-05-02T15:34:16;101161.94;;;16.56;100.00
32237;BME280;18726;44.732;10.550;2023-05-02T15:37:19;101167.47;;;16.26;100.00
32237;BME280;18726;44.732;10.550;2023-05-02T15:40:23;101172.69;;;16.35;100.00
32237;BME280;18726;44.732;10.550;2023-05-02T15:43:27;101175.75;;;16.30;100.00
32237;BME280;18726;44.732;10.550;2023-05-02T15:46:31;101174.25;;;16.36;100.00
32237;BME280;18726;44.732;10.550;2023-05-02T15:49:35;101176.31;;;16.12;100.00
32237;BME280;18726;44.732;10.550;2023-05-02T15:52:39;101173.22;;;16.17;100.00
32237;BME280;18726;44.732;10.550;2023-05-02T15:55:43;101165.25;;;16.05;100.00
32237;BME280;18726;44.732;10.550;2023-05-02T16:01:15;101166.63;;;15.92;100.00
32237;BME280;18726;44.732;10.550;2023-05-02T16:04:18;101170.78;;;16.09;100.00
32237;BME280;18726;44.732;10.550;2023-05-02T16:07:22;101171.31;;;15.92;100.00